Time;durP1;ratioP1;P1;durP2;ratioP2;P2;SDS_P1;SDS_P2;PMS_P1;PMS_P2;Temp;Humidity;BMP_temperature;BMP_pressure;BME280_temperature;BME280_humidity;BME280_pressure;Samples;Min_cycle;Max_cycle;Signal;HPM_P1;HPM_P2
2021/10/30 00:02:03;;;;;;;20.67;9.95;;;8.10;76.20;;;;;;5056053;28;20032;-78
2021/10/30 00:04:29;;;;;;;17.92;10.02;;;8.00;77.40;;;;;;5037872;28;20049;-77
2021/10/30 00:06:55;;;;;;;15.63;8.73;;;8.00;77.20;;;;;;5037936;28;20033;-77
2021/10/30 00:09:22;;;;;;;21.20;10.70;;;7.90;77.60;;;;;;5055719;28;20547;-78
2021/10/30 00:11:48;;;;;;;24.08;10.40;;;7.70;78.30;;;;;;5054293;28;20021;-77
2021/10/30 00:14:14;;;;;;;20.15;11.70;;;7.70;79.10;;;;;;5036508;28;20174;-77
2021/10/30 00:16:39;;;;;;;22.30;11.63;;;7.70;79.40;;;;;;5036923;28;20041;-77
2021/10/30 00:19:08;;;;;;;19.70;10.90;;;7.70;79.50;;;;;;5055391;28;20496;-77
2021/10/30 00:21:33;;;;;;;34.58;14.70;;;7.70;79.80;;;;;;5037253;28;20416;-76
2021/10/30 00:24:00;;;;;;;23.80;12.13;;;7.80;80.20;;;;;;5037208;28;20533;-76
2021/10/30 00:26:29;;;;;;;22.13;11.25;;;7.70;80.20;;;;;;5037513;28;20029;-77
2021/10/30 00:28:55;;;;;;;19.60;11.38;;;7.70;80.60;;;;;;5037011;28;20089;-77
2021/10/30 00:31:20;;;;;;;25.40;11.70;;;7.80;81.00;;;;;;5054974;28;20052;-77
2021/10/30 00:33:46;;;;;;;;;;;7.80;81.20;;;;;;5037385;28;20025;-77
2021/10/30 00:36:11;;;;;;;26.20;13.95;;;7.90;81.40;;;;;;5057669;28;19944;-78
2021/10/30 00:38:38;;;;;;;25.73;13.77;;;7.90;81.40;;;;;;5045295;28;20021;-77
2021/10/30 00:41:09;;;;;;;27.63;14.00;;;7.90;81.50;;;;;;5063145;28;20037;-77
2021/10/30 00:43:35;;;;;;;39.90;19.75;;;7.90;81.70;;;;;;5043191;28;20509;-77
2021/10/30 00:46:02;;;;;;;37.90;17.17;;;7.90;82.00;;;;;;5053902;28;20037;-78
2021/10/30 00:48:27;;;;;;;;;;;7.90;82.20;;;;;;5043496;28;20516;-77
2021/10/30 00:50:59;;;;;;;28.77;14.30;;;7.90;82.70;;;;;;5034960;28;19908;-77
2021/10/30 00:53:33;;;;;;;28.92;15.07;;;7.80;82.80;;;;;;5052513;28;20381;-77
2021/10/30 00:56:01;;;;;;;33.63;14.73;;;7.70;83.20;;;;;;5035826;28;20128;-77
2021/10/30 00:58:30;;;;;;;55.40;23.50;;;7.60;83.60;;;;;;5035306;28;20061;-77
2021/10/30 01:00:57;;;;;;;33.17;17.08;;;7.60;84.30;;;;;;5033142;28;20043;-76
2021/10/30 01:03:23;;;;;;;33.00;16.85;;;7.60;85.40;;;;;;5051368;28;20033;-77
2021/10/30 01:05:48;;;;;;;40.03;18.30;;;7.60;85.50;;;;;;5033534;28;20053;-77
2021/10/30 01:08:14;;;;;;;36.13;19.85;;;7.70;85.50;;;;;;5033693;28;20033;-77
2021/10/30 01:10:40;;;;;;;39.08;20.35;;;7.70;85.40;;;;;;5033836;28;20547;-77
2021/10/30 01:13:06;;;;;;;47.17;20.38;;;7.70;85.70;;;;;;5052126;28;20032;-77
2021/10/30 01:15:32;;;;;;;38.22;18.02;;;7.80;86.00;;;;;;5017510;28;20120;-77
2021/10/30 01:17:58;;;;;;;92.50;37.67;;;7.90;85.90;;;;;;5018272;28;20128;-77
2021/10/30 01:20:26;;;;;;;37.83;21.05;;;7.90;86.00;;;;;;5034603;28;20064;-77
2021/10/30 01:23:02;;;;;;;43.28;19.65;;;8.00;86.00;;;;;;5052250;28;20044;-77
2021/10/30 01:25:30;;;;;;;39.88;18.92;;;8.00;86.10;;;;;;5034454;28;20040;-78
2021/10/30 01:27:59;;;;;;;35.28;17.27;;;8.10;85.90;;;;;;5035237;28;20033;-77
2021/10/30 01:30:25;;;;;;;30.65;17.05;;;8.00;85.60;;;;;;5034253;28;20029;-77
2021/10/30 01:32:59;;;;;;;;;;;7.90;85.80;;;;;;5034801;28;20025;-77
2021/10/30 01:35:34;;;;;;;36.03;16.95;;;7.80;86.90;;;;;;5051953;28;19916;-77
2021/10/30 01:38:01;;;;;;;28.07;14.73;;;7.70;87.90;;;;;;5051848;28;20559;-76
2021/10/30 01:40:31;;;;;;;31.80;16.60;;;7.70;88.40;;;;;;5052615;28;20029;-77
2021/10/30 01:43:00;;;;;;;39.22;21.15;;;7.60;88.40;;;;;;5034664;28;20079;-77
2021/10/30 01:45:27;;;;;;;32.90;16.83;;;7.50;88.70;;;;;;5034309;28;20083;-77
2021/10/30 01:47:53;;;;;;;34.15;17.25;;;7.40;89.70;;;;;;5034811;28;20033;-77
2021/10/30 01:50:20;;;;;;;31.33;15.65;;;7.30;90.30;;;;;;5034205;28;20446;-77
2021/10/30 01:52:46;;;;;;;32.35;16.75;;;7.20;90.60;;;;;;5053422;28;20032;-77
2021/10/30 01:55:19;;;;;;;32.72;14.40;;;7.10;91.00;;;;;;5035692;28;20021;-78
2021/10/30 01:57:46;;;;;;;28.42;16.13;;;7.20;91.90;;;;;;5054069;28;20141;-77
2021/10/30 02:00:14;;;;;;;31.63;15.77;;;7.30;92.30;;;;;;5039234;28;20094;-77
2021/10/30 02:02:40;;;;;;;33.33;15.90;;;7.40;92.20;;;;;;5056533;28;20037;-77
2021/10/30 02:05:06;;;;;;;29.02;14.93;;;7.60;91.90;;;;;;5039595;28;20049;-77
2021/10/30 02:07:32;;;;;;;;;;;7.60;91.70;;;;;;5058686;28;20064;-78
2021/10/30 02:09:58;;;;;;;24.40;13.23;;;7.60;91.70;;;;;;5057716;28;19909;-77
2021/10/30 02:12:23;;;;;;;25.13;14.27;;;7.40;91.70;;;;;;5039057;28;20028;-77
2021/10/30 02:14:49;;;;;;;24.40;14.00;;;7.30;91.90;;;;;;5039128;28;20595;-77
2021/10/30 02:17:15;;;;;;;;;;;7.20;92.40;;;;;;5040519;28;20196;-77
2021/10/30 02:19:41;;;;;;;25.80;13.82;;;7.10;93.00;;;;;;5057648;28;19915;-77
2021/10/30 02:22:06;;;;;;;;;;;7.00;93.30;;;;;;5043784;28;20044;-77
2021/10/30 02:24:33;;;;;;;21.70;12.57;;;6.80;93.60;;;;;;5061089;28;19912;-77
2021/10/30 02:27:00;;;;;;;31.30;15.55;;;6.70;93.90;;;;;;5023691;28;20025;-77
2021/10/30 02:29:25;;;;;;;29.63;15.77;;;6.60;94.50;;;;;;5044152;28;20036;-78
2021/10/30 02:31:52;;;;;;;34.03;16.02;;;6.60;95.20;;;;;;5047247;28;20036;-78
2021/10/30 02:34:18;;;;;;;24.85;15.25;;;6.50;95.70;;;;;;5047065;28;20039;-76
2021/10/30 02:36:44;;;;;;;32.20;15.85;;;6.40;96.40;;;;;;5056278;28;20032;-77
2021/10/30 02:39:11;;;;;;;;;;;6.20;96.70;;;;;;5038879;28;20052;-77
2021/10/30 02:41:37;;;;;;;31.63;16.13;;;6.20;97.30;;;;;;5037617;28;19912;-77
2021/10/30 02:44:03;;;;;;;29.10;16.67;;;6.20;97.60;;;;;;5055723;28;20040;-77
2021/10/30 02:46:29;;;;;;;30.17;17.20;;;6.10;98.30;;;;;;5036695;28;20435;-78
2021/10/30 02:48:56;;;;;;;;;;;6.00;98.70;;;;;;5036650;28;20031;-77
2021/10/30 02:51:22;;;;;;;28.58;15.93;;;6.00;99.20;;;;;;5036498;28;19909;-77
2021/10/30 02:53:48;;;;;;;;;;;5.90;99.20;;;;;;5037250;28;20067;-77
2021/10/30 02:56:13;;;;;;;34.47;16.02;;;5.80;99.30;;;;;;5054561;28;19924;-77
2021/10/30 02:58:39;;;;;;;;;;;5.80;99.60;;;;;;5036976;28;20036;-77
2021/10/30 03:01:05;;;;;;;31.27;16.73;;;5.60;99.90;;;;;;5036646;28;19905;-77
2021/10/30 03:03:31;;;;;;;31.30;18.40;;;5.70;99.90;;;;;;5036645;28;20031;-77
2021/10/30 03:05:56;;;;;;;31.88;17.63;;;5.60;99.90;;;;;;5032887;28;20087;-78
2021/10/30 03:08:22;;;;;;;;;;;5.60;99.90;;;;;;5034220;28;20026;-77
2021/10/30 03:10:47;;;;;;;35.67;16.73;;;5.60;99.90;;;;;;5032634;28;19905;-76
2021/10/30 03:13:13;;;;;;;34.92;18.13;;;5.50;99.90;;;;;;5033194;28;20052;-77
2021/10/30 03:15:39;;;;;;;32.33;17.27;;;5.50;99.90;;;;;;5036536;28;20059;-78
2021/10/30 03:18:04;;;;;;;28.83;16.83;;;5.50;99.90;;;;;;5040740;28;20029;-77
2021/10/30 03:20:30;;;;;;;;;;;5.50;99.90;;;;;;5038091;28;20037;-77
2021/10/30 03:22:55;;;;;;;30.20;14.05;;;5.50;99.90;;;;;;5032254;28;19911;-77
2021/10/30 03:25:21;;;;;;;;;;;5.40;99.90;;;;;;5033292;28;20037;-77
2021/10/30 03:27:47;;;;;;;32.28;16.52;;;5.40;99.90;;;;;;5031728;28;20285;-77
2021/10/30 03:30:12;;;;;;;;;;;5.40;99.90;;;;;;5033424;28;20052;-77
2021/10/30 03:32:38;;;;;;;33.13;17.92;;;5.40;99.90;;;;;;5032556;28;20388;-77
2021/10/30 03:35:05;;;;;;;;;;;5.60;99.90;;;;;;5031560;28;20404;-77
2021/10/30 03:37:34;;;;;;;33.67;18.15;;;5.80;99.90;;;;;;5032185;28;19913;-77
2021/10/30 03:40:00;;;;;;;34.65;18.45;;;5.90;99.90;;;;;;5034193;28;20048;-77
2021/10/30 03:42:25;;;;;;;;;;;6.00;99.90;;;;;;5032830;28;20037;-77
2021/10/30 03:44:51;;;;;;;34.70;16.73;;;6.10;99.90;;;;;;5036111;28;19913;-78
2021/10/30 03:47:17;;;;;;;;;;;6.20;99.90;;;;;;5037055;28;20451;-77
2021/10/30 03:49:43;;;;;;;37.55;18.25;;;6.10;99.90;;;;;;5036281;28;19916;-77
2021/10/30 03:52:09;;;;;;;38.63;18.35;;;6.00;99.90;;;;;;5038191;28;20033;-77
2021/10/30 03:54:36;;;;;;;42.55;20.25;;;6.10;99.90;;;;;;5034951;28;20033;-77
2021/10/30 03:57:02;;;;;;;35.03;18.90;;;6.20;99.90;;;;;;5035372;28;20045;-77
2021/10/30 03:59:28;;;;;;;40.10;19.00;;;6.20;99.90;;;;;;5038883;28;20117;-77
2021/10/30 04:01:54;;;;;;;35.97;18.63;;;6.30;99.90;;;;;;5033044;28;20124;-78
2021/10/30 04:04:19;;;;;;;;;;;6.30;99.90;;;;;;5035993;28;20060;-77
2021/10/30 04:06:45;;;;;;;35.90;17.08;;;6.30;99.90;;;;;;5054987;28;19909;-77
2021/10/30 04:09:11;;;;;;;;;;;6.30;99.90;;;;;;5054205;28;20029;-77
2021/10/30 04:11:36;;;;;;;35.95;18.85;;;6.20;99.90;;;;;;5037286;28;19908;-78
2021/10/30 04:14:02;;;;;;;;;;;6.20;99.90;;;;;;5055939;28;20033;-77
2021/10/30 04:16:29;;;;;;;39.47;20.08;;;6.10;99.90;;;;;;5037181;28;19939;-77
2021/10/30 04:18:57;;;;;;;40.53;21.38;;;6.00;99.90;;;;;;5054627;28;20028;-77
2021/10/30 04:21:23;;;;;;;44.22;20.55;;;6.00;99.90;;;;;;5034947;28;20055;-78
2021/10/30 04:23:49;;;;;;;36.53;21.08;;;6.10;99.90;;;;;;5039847;28;20140;-78
2021/10/30 04:26:14;;;;;;;;;;;6.20;99.90;;;;;;5042593;28;20064;-77
2021/10/30 04:28:40;;;;;;;34.58;18.60;;;6.30;99.90;;;;;;5036805;28;19916;-77
2021/10/30 04:31:07;;;;;;;;;;;6.20;99.90;;;;;;5035954;28;20092;-77
2021/10/30 04:33:34;;;;;;;36.67;18.33;;;6.20;99.90;;;;;;5034623;28;19905;-77
2021/10/30 04:36:03;;;;;;;34.88;19.05;;;6.10;99.90;;;;;;5034978;28;20033;-76
2021/10/30 04:38:29;;;;;;;37.88;20.10;;;6.10;99.90;;;;;;5036462;28;20036;-77
2021/10/30 04:40:54;;;;;;;37.15;20.85;;;5.90;99.90;;;;;;5034711;28;20447;-77
2021/10/30 04:43:20;;;;;;;45.22;21.73;;;6.10;99.90;;;;;;5034667;28;20037;-76
2021/10/30 04:45:46;;;;;;;33.30;18.48;;;5.90;99.90;;;;;;5053205;28;20029;-76
2021/10/30 04:48:12;;;;;;;;;;;5.90;99.90;;;;;;5036308;28;20048;-77
2021/10/30 04:50:39;;;;;;;37.30;18.83;;;5.90;99.90;;;;;;5054163;28;19909;-77
2021/10/30 04:53:05;;;;;;;34.00;18.25;;;5.90;99.90;;;;;;5035288;28;20444;-77
2021/10/30 04:55:30;;;;;;;36.60;18.80;;;5.90;99.90;;;;;;5036575;28;20033;-76
2021/10/30 04:57:58;;;;;;;;;;;6.00;99.90;;;;;;5054223;28;20036;-77
2021/10/30 05:00:23;;;;;;;38.47;18.23;;;6.00;99.90;;;;;;5036584;28;19916;-77
2021/10/30 05:02:49;;;;;;;34.00;17.88;;;6.10;99.90;;;;;;5036367;28;20029;-77
2021/10/30 05:05:15;;;;;;;;;;;6.10;99.90;;;;;;5038037;28;20065;-77
2021/10/30 05:07:40;;;;;;;32.65;17.77;;;6.20;99.90;;;;;;5036666;28;20366;-77
2021/10/30 05:10:06;;;;;;;36.20;18.30;;;6.30;99.90;;;;;;5037882;28;20029;-77
2021/10/30 05:12:33;;;;;;;28.67;15.70;;;6.20;99.90;;;;;;5053242;28;20041;-77
2021/10/30 05:14:58;;;;;;;35.63;18.98;;;6.20;99.90;;;;;;5036599;28;20078;-78
2021/10/30 05:17:24;;;;;;;47.63;22.63;;;6.20;99.90;;;;;;5057258;28;20047;-78
2021/10/30 05:19:50;;;;;;;36.45;19.38;;;6.10;99.90;;;;;;5035099;28;20127;-77
2021/10/30 05:22:15;;;;;;;;;;;6.00;99.90;;;;;;5055056;28;20525;-77
2021/10/30 05:24:41;;;;;;;35.30;19.20;;;5.90;99.90;;;;;;5036736;28;19917;-78
2021/10/30 05:27:07;;;;;;;36.33;19.90;;;5.90;99.90;;;;;;5036611;28;20093;-78
2021/10/30 05:29:35;;;;;;;50.70;27.42;;;5.80;99.90;;;;;;5035615;28;20389;-78
2021/10/30 05:32:01;;;;;;;43.75;20.85;;;5.80;99.90;;;;;;5056722;28;20040;-78
2021/10/30 05:34:26;;;;;;;32.58;19.05;;;5.90;99.90;;;;;;5048721;28;20024;-78
2021/10/30 05:36:54;;;;;;;34.55;19.25;;;5.90;99.90;;;;;;5041915;28;20040;-78
2021/10/30 05:39:21;;;;;;;36.10;21.25;;;6.00;99.90;;;;;;5042566;28;20037;-78
2021/10/30 05:41:47;;;;;;;35.20;19.65;;;6.10;99.90;;;;;;5041888;28;20021;-78
2021/10/30 05:44:13;;;;;;;29.00;18.48;;;5.90;99.90;;;;;;5041064;28;20035;-79
2021/10/30 05:46:40;;;;;;;35.35;20.52;;;5.90;99.90;;;;;;5058389;28;20517;-78
2021/10/30 05:49:08;;;;;;;30.92;18.65;;;6.00;99.90;;;;;;5042078;28;20056;-78
2021/10/30 05:51:34;;;;;;;32.22;19.15;;;5.90;99.90;;;;;;5049977;28;20060;-79
2021/10/30 05:54:02;;;;;;;35.45;19.15;;;5.90;99.90;;;;;;5067838;28;20473;-78
2021/10/30 05:56:32;;;;;;;36.20;20.60;;;6.00;99.90;;;;;;5057395;28;20029;-77
2021/10/30 05:58:58;;;;;;;40.55;21.42;;;5.90;99.90;;;;;;5057711;28;20063;-77
2021/10/30 06:01:24;;;;;;;31.20;19.23;;;6.00;99.90;;;;;;5040024;28;20508;-78
2021/10/30 06:03:49;;;;;;;;;;;6.10;99.90;;;;;;5058605;28;20091;-77
2021/10/30 06:06:16;;;;;;;40.72;20.90;;;6.30;99.90;;;;;;5056720;28;20379;-77
2021/10/30 06:08:42;;;;;;;32.20;17.30;;;6.40;99.90;;;;;;5038738;28;20520;-77
2021/10/30 06:11:08;;;;;;;31.08;18.55;;;6.50;99.90;;;;;;5038071;28;20041;-77
2021/10/30 06:13:33;;;;;;;;;;;6.50;99.90;;;;;;5057599;28;20029;-77
2021/10/30 06:15:59;;;;;;;29.83;17.67;;;6.60;99.90;;;;;;5040941;28;20447;-78
2021/10/30 06:18:25;;;;;;;27.15;16.13;;;7.00;99.90;;;;;;5065358;28;20394;-78
2021/10/30 06:20:53;;;;;;;;;;;7.20;99.90;;;;;;5040686;28;20036;-77
2021/10/30 06:23:19;;;;;;;27.23;14.98;;;7.80;99.90;;;;;;5040272;28;19991;-76
2021/10/30 06:25:45;;;;;;;29.63;17.20;;;8.50;99.90;;;;;;5022255;28;20114;-77
2021/10/30 06:28:12;;;;;;;30.80;18.45;;;9.30;99.90;;;;;;5055161;28;20093;-76
2021/10/30 06:30:38;;;;;;;47.25;26.55;;;9.90;99.60;;;;;;5038088;28;20025;-76
2021/10/30 06:33:03;;;;;;;;;;;10.50;97.80;;;;;;5040476;28;20116;-75
2021/10/30 06:35:29;;;;;;;44.08;26.67;;;11.00;96.30;;;;;;5040507;28;19920;-76
2021/10/30 06:37:56;;;;;;;;;;;11.40;94.90;;;;;;5041068;28;20036;-77
2021/10/30 06:40:22;;;;;;;40.30;23.02;;;11.60;93.40;;;;;;5039666;28;19968;-76
2021/10/30 06:42:47;;;;;;;;;;;11.70;93.50;;;;;;5047796;28;20079;-77
2021/10/30 06:45:13;;;;;;;33.42;19.58;;;11.90;92.60;;;;;;5055400;28;20372;-77
2021/10/30 06:47:39;;;;;;;;;;;12.00;92.90;;;;;;5055805;28;20464;-77
2021/10/30 06:50:07;;;;;;;32.75;19.70;;;12.10;92.50;;;;;;5054849;28;19936;-79
2021/10/30 06:52:40;;;;;;;44.20;19.38;;;12.10;92.50;;;;;;5053991;28;20754;-76
2021/10/30 06:55:09;;;;;;;40.40;23.33;;;12.00;93.10;;;;;;5035667;28;20052;-77
2021/10/30 06:57:35;;;;;;;39.28;22.30;;;11.90;93.10;;;;;;5037354;28;20052;-77
2021/10/30 07:00:03;;;;;;;23.48;14.60;;;11.90;93.50;;;;;;5038065;28;20511;-77
2021/10/30 07:02:28;;;;;;;26.50;15.95;;;11.80;94.10;;;;;;5056620;28;20059;-77
2021/10/30 07:04:54;;;;;;;;;;;11.80;94.30;;;;;;5038750;28;20497;-77
2021/10/30 07:07:20;;;;;;;24.25;13.68;;;11.90;94.20;;;;;;5066964;28;19999;-78
2021/10/30 07:09:46;;;;;;;;;;;12.00;94.00;;;;;;5059582;28;20057;-78
2021/10/30 07:12:12;;;;;;;22.50;13.73;;;12.20;93.70;;;;;;5058456;28;19913;-77
2021/10/30 07:14:37;;;;;;;;;;;12.30;93.00;;;;;;5040759;28;20075;-77
2021/10/30 07:17:03;;;;;;;27.52;15.07;;;12.40;93.00;;;;;;5040405;28;20373;-77
2021/10/30 07:19:28;;;;;;;;;;;12.60;92.70;;;;;;5040936;28;20025;-78
2021/10/30 07:21:54;;;;;;;28.50;14.50;;;12.80;91.90;;;;;;5058372;28;20319;-77
2021/10/30 07:24:20;;;;;;;;;;;13.00;91.60;;;;;;5041816;28;20091;-77
2021/10/30 07:26:46;;;;;;;21.85;13.77;;;13.10;91.40;;;;;;5040873;28;20423;-77
2021/10/30 07:29:12;;;;;;;20.55;13.60;;;13.40;90.90;;;;;;5041752;28;20033;-77
2021/10/30 07:31:38;;;;;;;22.23;14.15;;;13.50;90.60;;;;;;5059195;28;20440;-77
2021/10/30 07:34:04;;;;;;;;;;;13.70;90.00;;;;;;5063159;28;20866;-77
2021/10/30 07:36:31;;;;;;;24.42;14.70;;;13.60;89.20;;;;;;5047378;28;19924;-77
2021/10/30 07:38:59;;;;;;;27.90;15.70;;;13.60;89.00;;;;;;5057797;28;20017;-77
2021/10/30 07:41:24;;;;;;;;;;;13.50;88.60;;;;;;5042035;28;20115;-76
2021/10/30 07:43:54;;;;;;;25.98;12.93;;;13.50;89.00;;;;;;5058380;28;20384;-77
2021/10/30 07:46:24;;;;;;;23.75;14.35;;;13.40;89.20;;;;;;5040478;28;20025;-77
2021/10/30 07:48:54;;;;;;;30.27;14.88;;;13.40;89.10;;;;;;5040752;28;20032;-77
2021/10/30 07:51:21;;;;;;;19.83;12.68;;;13.40;88.30;;;;;;5058777;28;20104;-77
2021/10/30 07:53:47;;;;;;;24.10;14.85;;;13.40;89.10;;;;;;5041641;28;20029;-77
2021/10/30 07:56:13;;;;;;;;;;;13.50;88.10;;;;;;5024779;28;20041;-77
2021/10/30 07:58:40;;;;;;;25.75;13.68;;;13.60;87.60;;;;;;5057363;28;19904;-77
2021/10/30 08:01:06;;;;;;;31.35;16.33;;;13.70;86.70;;;;;;5040820;28;20055;-77
2021/10/30 08:03:32;;;;;;;;;;;13.80;87.00;;;;;;5040839;28;20025;-77
2021/10/30 08:05:57;;;;;;;29.60;15.23;;;13.90;86.90;;;;;;5058277;28;19920;-77
2021/10/30 08:08:23;;;;;;;;;;;13.90;86.10;;;;;;5046318;28;20036;-79
2021/10/30 08:10:49;;;;;;;24.60;15.02;;;14.00;86.30;;;;;;5042469;28;19959;-77
2021/10/30 08:13:14;;;;;;;;;;;14.20;85.60;;;;;;5056179;28;20036;-77
2021/10/30 08:15:40;;;;;;;18.42;11.88;;;14.40;84.00;;;;;;5055539;28;19912;-77
2021/10/30 08:18:07;;;;;;;;;;;14.70;84.10;;;;;;5056840;28;20037;-77
2021/10/30 08:20:34;;;;;;;21.65;14.77;;;15.00;82.00;;;;;;5038926;28;19908;-78
2021/10/30 08:23:00;;;;;;;27.20;13.48;;;15.20;81.30;;;;;;5037868;28;20602;-78
2021/10/30 08:25:26;;;;;;;;;;;15.30;79.60;;;;;;5041783;28;20025;-83
2021/10/30 08:27:52;;;;;;;28.05;14.65;;;15.70;78.70;;;;;;5051742;28;19912;-80
2021/10/30 08:30:18;;;;;;;18.02;12.80;;;16.10;77.20;;;;;;5049199;28;20029;-81
2021/10/30 08:32:45;;;;;;;20.75;13.00;;;16.50;75.10;;;;;;5030854;28;20038;-82
2021/10/30 08:35:11;;;;;;;26.60;13.07;;;17.00;72.90;;;;;;5030731;28;20078;-82
2021/10/30 08:37:38;;;;;;;21.70;12.73;;;17.50;69.30;;;;;;5030882;28;20033;-81
2021/10/30 08:40:10;;;;;;;24.88;12.80;;;17.80;68.50;;;;;;5030976;28;20029;-82
2021/10/30 08:42:36;;;;;;;21.05;12.77;;;18.20;67.10;;;;;;5030717;28;20021;-80
2021/10/30 08:45:06;;;;;;;31.63;13.98;;;18.80;64.70;;;;;;5049171;28;20029;-79
2021/10/30 08:47:32;;;;;;;25.15;14.38;;;19.20;63.70;;;;;;5048811;28;20025;-76
2021/10/30 08:49:59;;;;;;;25.05;14.02;;;19.60;61.70;;;;;;5048668;28;20033;-79
2021/10/30 08:52:25;;;;;;;30.83;13.70;;;19.90;59.30;;;;;;5030545;28;20519;-77
2021/10/30 08:54:50;;;;;;;22.55;13.13;;;20.10;58.80;;;;;;5030576;28;20369;-79
2021/10/30 08:57:16;;;;;;;27.30;13.52;;;20.40;57.10;;;;;;5048424;28;20444;-78
2021/10/30 08:59:44;;;;;;;21.52;13.30;;;20.60;55.40;;;;;;5030539;28;20409;-78
2021/10/30 09:02:27;;;;;;;20.17;13.00;;;20.80;54.70;;;;;;5048560;28;20036;-78
2021/10/30 09:05:26;;;;;;;20.95;12.32;;;21.00;53.70;;;;;;5030080;28;20076;-77
2021/10/30 09:07:57;;;;;;;20.98;13.13;;;21.30;51.70;;;;;;4997458;28;20444;-75
2021/10/30 09:10:44;;;;;;;21.38;13.70;;;21.30;52.20;;;;;;5048382;28;20078;-78
2021/10/30 09:13:11;;;;;;;23.05;12.65;;;21.20;52.00;;;;;;5047552;28;20124;-78
2021/10/30 09:15:42;;;;;;;26.20;13.93;;;21.40;51.30;;;;;;5030172;28;20033;-78
2021/10/30 09:18:22;;;;;;;20.83;13.27;;;21.30;50.50;;;;;;5030337;28;20067;-78
2021/10/30 09:20:49;;;;;;;19.95;13.40;;;21.40;50.00;;;;;;5030189;28;20509;-78
2021/10/30 09:23:29;;;;;;;21.65;14.07;;;21.20;50.20;;;;;;5048267;28;20029;-79
2021/10/30 09:26:02;;;;;;;25.42;14.32;;;21.40;48.80;;;;;;5030248;28;20029;-79
2021/10/30 09:28:33;;;;;;;18.67;13.70;;;20.80;49.40;;;;;;5048453;28;20025;-77
2021/10/30 09:31:03;;;;;;;20.23;13.55;;;19.70;52.10;;;;;;5030931;28;20447;-80
2021/10/30 09:33:31;;;;;;;23.52;14.07;;;18.80;53.50;;;;;;5030329;28;20025;-80
2021/10/30 09:36:08;;;;;;;20.27;13.27;;;18.30;55.10;;;;;;5030110;28;20068;-80
2021/10/30 09:38:37;;;;;;;19.23;13.35;;;17.70;56.50;;;;;;5030277;28;20091;-82
2021/10/30 09:41:18;;;;;;;21.60;13.38;;;17.30;58.00;;;;;;5048003;28;20037;-79
2021/10/30 09:44:07;;;;;;;20.88;12.48;;;17.10;59.20;;;;;;5029991;28;20036;-85
2021/10/30 09:46:35;;;;;;;24.55;12.48;;;16.90;59.70;;;;;;5029367;28;20051;-80
2021/10/30 09:49:24;;;;;;;22.85;13.77;;;16.90;60.00;;;;;;5030057;28;20014;-79
2021/10/30 09:52:08;;;;;;;22.25;14.00;;;16.60;61.60;;;;;;5030179;28;20033;-80
2021/10/30 09:54:37;;;;;;;24.67;14.27;;;16.50;61.90;;;;;;5048027;28;20024;-79
2021/10/30 09:57:07;;;;;;;25.85;12.82;;;16.40;62.10;;;;;;5030863;28;20591;-79
2021/10/30 09:59:37;;;;;;;20.95;12.55;;;16.40;62.10;;;;;;5035878;28;20029;-79
2021/10/30 10:02:05;;;;;;;23.33;13.60;;;16.30;62.60;;;;;;5043220;28;20120;-80
2021/10/30 10:04:31;;;;;;;27.25;14.52;;;16.30;62.20;;;;;;5038942;28;20052;-78
2021/10/30 10:07:00;;;;;;;28.40;14.27;;;16.20;62.60;;;;;;5057274;28;20120;-77
2021/10/30 10:09:25;;;;;;;21.48;13.35;;;15.90;62.80;;;;;;5035967;28;20386;-77
2021/10/30 10:11:52;;;;;;;;;;;15.80;63.30;;;;;;5036950;28;20029;-78
2021/10/30 10:14:20;;;;;;;17.98;11.48;;;15.60;65.00;;;;;;5036913;28;19912;-77
2021/10/30 10:16:50;;;;;;;23.50;13.95;;;15.60;64.80;;;;;;5060021;28;20037;-78
2021/10/30 10:19:17;;;;;;;21.92;12.93;;;15.40;64.90;;;;;;5055768;28;20080;-78
2021/10/30 10:21:45;;;;;;;23.20;12.93;;;15.40;65.20;;;;;;5057536;28;20067;-77
2021/10/30 10:24:17;;;;;;;27.13;14.35;;;15.40;65.50;;;;;;5039662;28;20028;-79
2021/10/30 10:26:49;;;;;;;27.25;13.65;;;15.40;65.90;;;;;;5039056;28;20534;-78
2021/10/30 10:29:36;;;;;;;24.40;12.70;;;15.50;65.70;;;;;;5039343;28;20031;-77
2021/10/30 10:32:15;;;;;;;23.30;14.70;;;15.40;65.30;;;;;;5038623;28;20021;-77
2021/10/30 10:34:42;;;;;;;19.92;13.20;;;15.40;65.80;;;;;;5039530;28;20051;-79
2021/10/30 10:37:10;;;;;;;24.60;13.13;;;15.40;66.20;;;;;;5038599;28;20040;-77
2021/10/30 10:39:54;;;;;;;22.55;12.77;;;15.30;66.30;;;;;;5039239;28;20564;-77
2021/10/30 10:42:35;;;;;;;17.70;11.55;;;15.30;66.80;;;;;;5038320;28;20029;-78
2021/10/30 10:45:01;;;;;;;19.35;13.45;;;15.40;67.10;;;;;;5057570;28;20025;-77
2021/10/30 10:47:35;;;;;;;;;;;15.40;67.20;;;;;;5040964;28;20067;-77
2021/10/30 10:50:25;;;;;;;26.52;14.02;;;15.40;67.00;;;;;;5039368;28;19908;-78
2021/10/30 10:53:05;;;;;;;34.00;13.85;;;15.50;66.50;;;;;;5039061;28;20021;-78
2021/10/30 10:55:58;;;;;;;19.63;12.63;;;15.40;65.90;;;;;;5038986;28;20033;-82
2021/10/30 10:58:26;;;;;;;23.15;13.63;;;15.40;66.40;;;;;;5058920;28;20029;-79
2021/10/30 11:01:03;;;;;;;18.98;12.68;;;15.50;67.20;;;;;;5046890;28;20029;-80
2021/10/30 11:03:30;;;;;;;21.75;12.63;;;15.50;67.00;;;;;;5048055;28;20021;-79
2021/10/30 11:05:57;;;;;;;22.77;13.85;;;15.50;66.80;;;;;;5041160;28;20049;-77
2021/10/30 11:08:32;;;;;;;20.08;13.38;;;15.60;66.30;;;;;;5040110;28;20029;-78
2021/10/30 11:11:11;;;;;;;21.02;13.63;;;15.70;66.20;;;;;;5057213;28;20025;-78
2021/10/30 11:13:44;;;;;;;22.17;13.55;;;15.60;66.30;;;;;;5058074;28;20493;-77
2021/10/30 11:16:10;;;;;;;18.52;11.63;;;15.60;66.50;;;;;;5056870;28;20064;-77
2021/10/30 11:21:24;;;;;;;26.40;13.38;;;15.70;66.50;;;;;;5057106;28;20514;-77
2021/10/30 11:23:53;;;;;;;23.08;12.98;;;15.80;66.20;;;;;;5040790;28;20033;-78
2021/10/30 11:26:30;;;;;;;23.15;12.70;;;15.80;66.30;;;;;;5057524;28;20021;-78
2021/10/30 11:29:22;;;;;;;19.50;13.48;;;15.80;65.90;;;;;;5056523;28;20020;-78
2021/10/30 11:31:59;;;;;;;18.58;12.60;;;15.80;65.80;;;;;;5052699;28;20040;-78
2021/10/30 11:34:26;;;;;;;22.38;11.77;;;15.90;65.90;;;;;;5057614;28;20021;-78
2021/10/30 11:36:56;;;;;;;23.83;13.68;;;15.90;66.00;;;;;;5038620;28;20254;-78
2021/10/30 11:39:28;;;;;;;25.35;14.75;;;16.00;65.30;;;;;;5037264;28;20025;-78
2021/10/30 11:41:55;;;;;;;23.52;13.43;;;16.10;64.40;;;;;;5056167;28;20036;-79
2021/10/30 11:44:23;;;;;;;25.20;13.48;;;16.00;65.00;;;;;;5055958;28;20690;-79
2021/10/30 11:46:56;;;;;;;19.80;13.10;;;16.00;65.80;;;;;;5055827;28;20032;-78
2021/10/30 11:49:34;;;;;;;23.48;12.55;;;15.90;65.40;;;;;;5056297;28;20025;-79
2021/10/30 11:52:05;;;;;;;22.58;13.20;;;15.90;65.80;;;;;;5045222;28;20017;-78
2021/10/30 11:54:33;;;;;;;22.10;12.32;;;15.90;65.70;;;;;;5046086;28;20056;-81
2021/10/30 11:57:00;;;;;;;24.98;12.18;;;15.90;65.70;;;;;;5042647;28;20037;-78
2021/10/30 11:59:25;;;;;;;23.02;13.40;;;15.90;65.80;;;;;;5039042;28;20025;-79
2021/10/30 12:01:51;;;;;;;;;;;16.00;65.60;;;;;;5038949;28;20464;-78
2021/10/30 12:04:26;;;;;;;26.08;12.35;;;16.00;65.60;;;;;;5055470;28;20442;-78
2021/10/30 12:07:00;;;;;;;23.13;12.73;;;16.00;65.70;;;;;;5038538;28;20033;-78
2021/10/30 12:09:37;;;;;;;21.92;12.63;;;16.00;66.50;;;;;;5056388;28;20044;-77
2021/10/30 12:12:06;;;;;;;32.33;11.93;;;16.10;66.00;;;;;;5056513;28;20043;-78
2021/10/30 12:14:47;;;;;;;19.65;11.40;;;16.10;65.50;;;;;;5038387;28;20068;-77
2021/10/30 12:17:18;;;;;;;18.80;12.02;;;16.20;65.30;;;;;;5038965;28;20047;-78
2021/10/30 12:19:53;;;;;;;18.60;12.18;;;16.10;65.60;;;;;;5056188;28;20017;-78
2021/10/30 12:22:22;;;;;;;20.27;12.70;;;16.20;65.40;;;;;;5057077;28;20025;-78
2021/10/30 12:25:11;;;;;;;23.95;13.30;;;16.20;65.10;;;;;;5055251;28;20029;-79
2021/10/30 12:27:49;;;;;;;16.95;11.20;;;16.30;64.90;;;;;;5056265;28;20052;-78
2021/10/30 12:30:23;;;;;;;17.58;10.80;;;16.30;65.00;;;;;;5056019;28;20025;-79
2021/10/30 12:32:50;;;;;;;19.20;11.00;;;16.30;64.80;;;;;;5037946;28;20021;-79
2021/10/30 12:35:28;;;;;;;20.75;11.43;;;16.30;64.60;;;;;;5038986;28;20045;-78
2021/10/30 12:38:08;;;;;;;20.77;12.05;;;16.40;64.60;;;;;;5060633;28;20040;-79
2021/10/30 12:40:34;;;;;;;17.75;11.85;;;16.50;64.60;;;;;;5060775;28;20112;-78
2021/10/30 12:43:09;;;;;;;20.83;11.75;;;16.50;64.20;;;;;;5036994;28;20028;-78
2021/10/30 12:45:48;;;;;;;20.92;12.05;;;16.60;63.70;;;;;;5055702;28;20536;-78
2021/10/30 12:48:15;;;;;;;21.88;13.77;;;16.70;63.50;;;;;;5037401;28;20032;-77
2021/10/30 12:50:41;;;;;;;21.13;12.57;;;16.70;63.70;;;;;;5037658;28;20120;-77
2021/10/30 12:53:22;;;;;;;19.48;12.55;;;16.80;63.40;;;;;;5036966;28;20025;-77
2021/10/30 12:56:10;;;;;;;23.08;12.23;;;16.80;63.00;;;;;;5056479;28;20056;-77
2021/10/30 12:58:37;;;;;;;20.13;11.48;;;16.80;63.30;;;;;;5036747;28;20029;-77